createdAt,value
2023-01-29T00:00:27.777Z,95542.19
2023-01-29T00:02:54.162Z,95544.47
2023-01-29T00:05:27.777Z,95539.56
2023-01-29T00:07:54.663Z,95533.16
2023-01-29T00:10:21.130Z,95538.50
2023-01-29T00:12:47.530Z,95540.03
2023-01-29T00:15:13.932Z,95543.09
2023-01-29T00:17:40.330Z,95534.06
2023-01-29T00:20:06.754Z,95537.75
2023-01-29T00:22:33.189Z,95532.06
2023-01-29T00:24:59.585Z,95534.38
2023-01-29T00:27:25.996Z,95534.38
2023-01-29T00:29:52.361Z,95531.47
2023-01-29T00:32:18.839Z,95533.16
2023-01-29T00:34:45.233Z,95527.78
2023-01-29T00:37:11.604Z,95522.56
2023-01-29T00:39:47.569Z,95535.44
2023-01-29T00:42:14.377Z,95522.72
2023-01-29T00:44:40.781Z,95525.63
2023-01-29T00:47:07.155Z,95526.09
2023-01-29T00:49:33.575Z,95526.72
2023-01-29T00:51:59.998Z,95532.69
2023-01-29T00:54:26.388Z,95528.84
2023-01-29T00:56:52.753Z,95536.06
2023-01-29T00:59:19.150Z,95531.91
2023-01-29T01:01:45.777Z,95533.59
2023-01-29T01:04:12.207Z,95537.13
2023-01-29T01:06:38.571Z,95546.63
2023-01-29T01:09:04.956Z,95540.50
2023-01-29T01:11:31.328Z,95540.03
2023-01-29T01:13:57.699Z,95534.97
2023-01-29T01:16:24.095Z,95544.00
2023-01-29T01:18:50.542Z,95545.69
2023-01-29T01:21:16.926Z,95538.34
2023-01-29T01:23:43.306Z,95543.56
2023-01-29T01:26:09.691Z,95557.03
2023-01-29T01:28:36.084Z,95555.34
2023-01-29T01:31:02.484Z,95552.75
2023-01-29T01:33:28.864Z,95555.34
2023-01-29T01:35:55.244Z,95559.47
2023-01-29T01:38:21.635Z,95559.31
2023-01-29T01:40:48.122Z,95558.72
2023-01-29T01:43:14.512Z,95557.94
2023-01-29T01:45:40.955Z,95568.06
2023-01-29T01:48:07.411Z,95573.41
2023-01-29T01:50:33.822Z,95572.50
2023-01-29T01:53:00.216Z,95579.38
2023-01-29T01:55:26.578Z,95584.75
2023-01-29T01:57:52.978Z,95581.34
2023-01-29T02:00:19.361Z,95585.94
2023-01-29T02:02:45.743Z,95583.78
2023-01-29T02:05:12.111Z,95588.25
2023-01-29T02:07:38.487Z,95585.50
2023-01-29T02:10:04.900Z,95594.09
2023-01-29T02:12:31.354Z,95588.13
2023-01-29T02:14:57.744Z,95600.25
2023-01-29T02:17:24.247Z,95607.28
2023-01-29T02:19:50.683Z,95601.91
2023-01-29T02:22:17.088Z,95602.69
2023-01-29T02:24:43.614Z,95611.88
2023-01-29T02:27:10.029Z,95626.91
2023-01-29T02:29:36.424Z,95629.94
2023-01-29T02:32:02.849Z,95629.63
2023-01-29T02:34:29.290Z,95629.94
2023-01-29T02:36:55.741Z,95644.84
2023-01-29T02:39:22.149Z,95638.84
2023-01-29T02:41:48.505Z,95641.75
2023-01-29T02:44:14.892Z,95647.88
2023-01-29T02:46:41.279Z,95649.09
2023-01-29T02:49:07.671Z,95655.88
2023-01-29T02:51:34.025Z,95653.88
2023-01-29T02:54:00.400Z,95655.72
2023-01-29T02:56:26.876Z,95652.34
2023-01-29T02:58:53.281Z,95654.19
2023-01-29T03:01:19.783Z,95656.47
2023-01-29T03:03:46.204Z,95653.41
2023-01-29T03:06:12.573Z,95652.50
2023-01-29T03:08:38.946Z,95655.13
2023-01-29T03:11:05.335Z,95661.25
2023-01-29T03:13:31.734Z,95662.47
2023-01-29T03:15:58.162Z,95666.00
2023-01-29T03:18:24.548Z,95660.78
2023-01-29T03:20:51.018Z,95652.06
2023-01-29T03:23:17.400Z,95657.88
2023-01-29T03:25:43.863Z,95657.41
2023-01-29T03:28:10.233Z,95656.50
2023-01-29T03:30:36.593Z,95657.75
2023-01-29T03:33:03.102Z,95650.97
2023-01-29T03:35:29.494Z,95653.28
2023-01-29T03:37:55.878Z,95657.75
2023-01-29T03:40:22.269Z,95662.47
2023-01-29T03:42:48.711Z,95660.19
2023-01-29T03:45:15.104Z,95655.44
2023-01-29T03:47:41.531Z,95652.97
2023-01-29T03:50:07.900Z,95654.50
2023-01-29T03:52:34.276Z,95658.03
2023-01-29T03:55:00.688Z,95654.19
2023-01-29T03:57:27.082Z,95649.94
2023-01-29T03:59:53.471Z,95652.84
2023-01-29T04:02:19.858Z,95654.34
2023-01-29T04:04:46.234Z,95645.19
2023-01-29T04:07:12.688Z,95649.44
2023-01-29T04:09:39.112Z,95647.03
2023-01-29T04:12:05.517Z,95651.59
2023-01-29T04:14:31.964Z,95645.31
2023-01-29T04:16:58.426Z,95640.09
2023-01-29T04:19:24.818Z,95651.91
2023-01-29T04:21:51.186Z,95655.28
2023-01-29T04:24:17.596Z,95655.00
2023-01-29T04:26:44.104Z,95648.56
2023-01-29T04:29:10.476Z,95646.88
2023-01-29T04:31:36.946Z,95649.78
2023-01-29T04:34:03.405Z,95652.22
2023-01-29T04:36:29.785Z,95649.16
2023-01-29T04:38:56.184Z,95647.47
2023-01-29T04:41:22.588Z,95656.50
2023-01-29T04:43:48.975Z,95644.22
2023-01-29T04:46:15.363Z,95639.78
2023-01-29T04:48:41.774Z,95642.25
2023-01-29T04:51:08.140Z,95643.47
2023-01-29T04:53:34.524Z,95648.06
2023-01-29T04:56:01.027Z,95643.66
2023-01-29T04:58:27.395Z,95645.00
2023-01-29T05:00:53.777Z,95642.88
2023-01-29T05:03:20.163Z,95641.63
2023-01-29T05:05:46.625Z,95650.97
2023-01-29T05:08:12.995Z,95645.75
2023-01-29T05:10:39.367Z,95640.25
2023-01-29T05:13:05.768Z,95648.25
2023-01-29T05:15:32.384Z,95644.25
2023-01-29T05:17:58.776Z,95648.06
2023-01-29T05:20:25.145Z,95650.69
2023-01-29T05:22:51.525Z,95647.63
2023-01-29T05:25:17.916Z,95663.56
2023-01-29T05:27:44.285Z,95667.53
2023-01-29T05:30:10.667Z,95667.53
2023-01-29T05:32:37.053Z,95667.38
2023-01-29T05:35:03.433Z,95677.81
2023-01-29T05:37:29.829Z,95681.16
2023-01-29T05:39:56.224Z,95683.63
2023-01-29T05:42:22.597Z,95679.66
2023-01-29T05:44:48.992Z,95681.66
2023-01-29T05:47:15.452Z,95694.84
2023-01-29T05:49:42.106Z,95695.16
2023-01-29T05:52:08.487Z,95706.34
2023-01-29T05:54:34.901Z,95709.59
2023-01-29T05:57:01.262Z,95719.97
2023-01-29T05:59:27.681Z,95720.72
2023-01-29T06:01:54.124Z,95719.50
2023-01-29T06:04:20.583Z,95731.94
2023-01-29T06:06:46.981Z,95726.75
2023-01-29T06:09:13.444Z,95730.75
2023-01-29T06:11:39.842Z,95738.25
2023-01-29T06:14:06.297Z,95735.03
2023-01-29T06:16:32.728Z,95739.66
2023-01-29T06:18:59.127Z,95738.41
2023-01-29T06:21:25.567Z,95748.25
2023-01-29T06:23:51.945Z,95749.16
2023-01-29T06:26:18.430Z,95754.22
2023-01-29T06:28:44.823Z,95753.59
2023-01-29T06:31:27.416Z,95760.03
2023-01-29T06:33:57.535Z,95757.75
2023-01-29T06:36:23.906Z,95771.41
2023-01-29T06:38:50.365Z,95770.47
2023-01-29T06:41:16.745Z,95778.16
2023-01-29T06:43:43.121Z,95779.06
2023-01-29T06:46:09.492Z,95787.34
2023-01-29T06:48:35.871Z,95788.59
2023-01-29T06:51:02.268Z,95793.34
2023-01-29T06:53:28.638Z,95800.53
2023-01-29T06:55:55.143Z,95786.75
2023-01-29T06:58:21.529Z,95783.69
2023-01-29T07:00:47.964Z,95780.31
2023-01-29T07:03:14.398Z,95792.13
2023-01-29T07:05:40.884Z,95790.59
2023-01-29T07:08:07.339Z,95797.78
2023-01-29T07:10:33.728Z,95807.78
2023-01-29T07:13:00.173Z,95810.22
2023-01-29T07:15:26.567Z,95809.31
2023-01-29T07:17:52.951Z,95812.81
2023-01-29T07:20:19.397Z,95804.53
2023-01-29T07:22:45.770Z,95812.22
2023-01-29T07:25:12.171Z,95804.22
2023-01-29T07:27:38.789Z,95805.63
2023-01-29T07:30:05.209Z,95807.59
2023-01-29T07:32:31.576Z,95803.78
2023-01-29T07:34:57.978Z,95805.47
2023-01-29T07:37:24.381Z,95794.72
2023-01-29T07:39:50.763Z,95801.03
2023-01-29T07:42:17.148Z,95798.25
2023-01-29T07:44:43.531Z,95791.97
2023-01-29T07:47:10.091Z,95785.38
2023-01-29T07:49:36.469Z,95785.38
2023-01-29T07:52:03.070Z,95784.75
2023-01-29T07:54:29.503Z,95786.59
2023-01-29T07:56:55.881Z,95790.13
2023-01-29T07:59:22.387Z,95793.19
2023-01-29T08:01:48.789Z,95788.13
2023-01-29T08:04:15.245Z,95785.06
2023-01-29T08:06:41.627Z,95779.22
2023-01-29T08:09:07.998Z,95780.16
2023-01-29T08:11:34.370Z,95781.84
2023-01-29T08:14:00.765Z,95794.13
2023-01-29T08:16:27.666Z,95790.88
2023-01-29T08:18:54.097Z,95793.97
2023-01-29T08:21:20.482Z,95790.59
2023-01-29T08:23:46.852Z,95797.78
2023-01-29T08:26:13.236Z,95795.66
2023-01-29T08:28:39.652Z,95796.25
2023-01-29T08:31:06.076Z,95802.88
2023-01-29T08:33:39.675Z,95801.16
2023-01-29T08:36:06.045Z,95805.16
2023-01-29T08:38:32.427Z,95798.09
2023-01-29T08:40:58.808Z,95807.63
2023-01-29T08:43:25.212Z,95808.84
2023-01-29T08:45:51.631Z,95805.47
2023-01-29T08:48:18.059Z,95806.53
2023-01-29T08:50:44.437Z,95805.00
2023-01-29T08:53:10.872Z,95816.81
2023-01-29T08:55:37.233Z,95820.50
2023-01-29T08:58:03.612Z,95819.44
2023-01-29T09:00:31.556Z,95817.91
2023-01-29T09:02:57.916Z,95813.75
2023-01-29T09:05:24.297Z,95814.66
2023-01-29T09:07:52.626Z,95814.97
2023-01-29T09:10:19.712Z,95817.59
2023-01-29T09:12:46.317Z,95815.44
2023-01-29T09:15:12.693Z,95809.13
2023-01-29T09:17:39.065Z,95814.66
2023-01-29T09:20:05.424Z,95819.88
2023-01-29T09:22:31.814Z,95822.81
2023-01-29T09:24:58.199Z,95828.50
2023-01-29T09:27:24.590Z,95824.03
2023-01-29T09:29:51.109Z,95827.88
2023-01-29T09:32:37.696Z,95829.69
2023-01-29T09:35:03.837Z,95828.63
2023-01-29T09:37:30.219Z,95831.66
2023-01-29T09:39:56.614Z,95832.41
2023-01-29T09:42:22.991Z,95832.44
2023-01-29T09:44:49.395Z,95839.66
2023-01-29T09:47:15.817Z,95842.41
2023-01-29T09:49:42.241Z,95844.09
2023-01-29T09:52:08.651Z,95851.16
2023-01-29T09:54:35.146Z,95850.22
2023-01-29T09:57:01.575Z,95858.06
2023-01-29T09:59:27.966Z,95863.16
2023-01-29T10:01:54.415Z,95860.06
2023-01-29T10:04:20.954Z,95871.28
2023-01-29T10:06:47.328Z,95872.81
2023-01-29T10:09:13.757Z,95874.94
2023-01-29T10:11:40.168Z,95881.13
2023-01-29T10:14:06.543Z,95885.56
2023-01-29T10:16:32.906Z,95886.50
2023-01-29T10:18:59.340Z,95891.72
2023-01-29T10:21:25.776Z,95893.69
2023-01-29T10:23:52.225Z,95886.03
2023-01-29T10:26:18.640Z,95881.41
2023-01-29T10:28:45.030Z,95885.25
2023-01-29T10:31:11.667Z,95885.38
2023-01-29T10:33:49.307Z,95886.28
2023-01-29T10:36:20.738Z,95880.94
2023-01-29T10:38:47.103Z,95875.97
2023-01-29T10:41:13.476Z,95871.97
2023-01-29T10:43:39.881Z,95875.97
2023-01-29T10:46:06.304Z,95876.91
2023-01-29T10:48:32.683Z,95882.94
2023-01-29T10:50:59.107Z,95876.19
2023-01-29T10:53:25.496Z,95877.41
2023-01-29T10:55:51.897Z,95874.78
2023-01-29T10:58:18.356Z,95880.47
2023-01-29T11:00:44.714Z,95875.25
2023-01-29T11:03:18.166Z,95873.84
2023-01-29T11:05:52.635Z,95875.28
2023-01-29T11:08:19.034Z,95879.75
2023-01-29T11:10:45.404Z,95872.69
2023-01-29T11:13:11.853Z,95876.66
2023-01-29T11:15:38.229Z,95872.66
2023-01-29T11:18:04.602Z,95866.78
2023-01-29T11:20:30.996Z,95878.19
2023-01-29T11:22:57.399Z,95873.09
2023-01-29T11:25:23.805Z,95878.34
2023-01-29T11:27:50.225Z,95877.41
2023-01-29T11:30:16.849Z,95881.69
2023-01-29T11:32:43.425Z,95868.28
2023-01-29T11:35:09.812Z,95872.16
2023-01-29T11:37:36.183Z,95866.97
2023-01-29T11:40:02.544Z,95866.03
2023-01-29T11:42:28.907Z,95861.13
2023-01-29T11:44:55.300Z,95857.56
2023-01-29T11:47:21.734Z,95856.81
2023-01-29T11:49:48.114Z,95855.28
2023-01-29T11:52:14.678Z,95849.59
2023-01-29T11:54:41.288Z,95847.84
2023-01-29T11:57:07.651Z,95848.72
2023-01-29T11:59:34.022Z,95847.22
2023-01-29T12:02:00.467Z,95853.97
2023-01-29T12:04:26.843Z,95851.06
2023-01-29T12:06:53.227Z,95842.69
2023-01-29T12:09:19.610Z,95846.34
2023-01-29T12:11:46.067Z,95842.03
2023-01-29T12:14:12.441Z,95841.38
2023-01-29T12:16:38.816Z,95832.09
2023-01-29T12:19:05.208Z,95831.84
2023-01-29T12:21:31.652Z,95831.81
2023-01-29T12:23:58.056Z,95828.78
2023-01-29T12:26:24.497Z,95825.41
2023-01-29T12:28:50.895Z,95826.47
2023-01-29T12:31:17.337Z,95830.63
2023-01-29T12:33:43.710Z,95822.94
2023-01-29T12:36:10.984Z,95823.09
2023-01-29T12:38:37.407Z,95818.94
2023-01-29T12:41:03.788Z,95817.34
2023-01-29T12:43:30.157Z,95817.03
2023-01-29T12:45:56.539Z,95809.81
2023-01-29T12:48:23.005Z,95809.28
2023-01-29T12:50:49.369Z,95806.84
2023-01-29T12:53:15.749Z,95806.84
2023-01-29T12:55:42.123Z,95802.25
2023-01-29T12:58:08.488Z,95805.00
2023-01-29T13:00:34.901Z,95803.94
2023-01-29T13:03:01.355Z,95804.53
2023-01-29T13:05:27.781Z,95801.78
2023-01-29T13:07:54.163Z,95795.19
2023-01-29T13:10:20.551Z,95792.09
2023-01-29T13:12:46.928Z,95795.94
2023-01-29T13:15:13.350Z,95792.97
2023-01-29T13:17:39.744Z,95793.56
2023-01-29T13:20:06.142Z,95795.19
2023-01-29T13:22:32.516Z,95804.34
2023-01-29T13:25:05.060Z,95806.66
2023-01-29T13:27:32.168Z,95798.50
2023-01-29T13:29:58.633Z,95794.22
2023-01-29T13:32:25.049Z,95795.06
2023-01-29T13:34:51.435Z,95802.16
2023-01-29T13:37:17.877Z,95793.34
2023-01-29T13:39:44.357Z,95798.19
2023-01-29T13:42:10.763Z,95801.94
2023-01-29T13:44:37.162Z,95803.00
2023-01-29T13:47:03.569Z,95807.00
2023-01-29T13:49:29.972Z,95806.53
2023-01-29T13:51:56.375Z,95799.59
2023-01-29T13:54:22.779Z,95802.28
2023-01-29T13:56:49.162Z,95795.50
2023-01-29T13:59:15.574Z,95794.47
2023-01-29T14:01:41.996Z,95793.09
2023-01-29T14:04:08.435Z,95793.84
2023-01-29T14:06:34.824Z,95796.22
2023-01-29T14:09:01.256Z,95793.75
2023-01-29T14:11:27.661Z,95800.28
2023-01-29T14:13:54.088Z,95796.22
2023-01-29T14:16:20.496Z,95799.53
2023-01-29T14:18:46.883Z,95803.22
2023-01-29T14:21:13.276Z,95801.47
2023-01-29T14:23:39.668Z,95801.25
2023-01-29T14:26:06.126Z,95807.44
2023-01-29T14:28:32.551Z,95811.88
2023-01-29T14:30:59.077Z,95804.69
2023-01-29T14:33:25.553Z,95806.34
2023-01-29T14:35:52.006Z,95812.03
2023-01-29T14:38:18.405Z,95812.94
2023-01-29T14:40:44.774Z,95807.16
2023-01-29T14:43:11.175Z,95808.84
2023-01-29T14:45:37.575Z,95808.34
2023-01-29T14:48:03.984Z,95813.00
2023-01-29T14:50:30.411Z,95810.84
2023-01-29T14:52:56.843Z,95815.72
2023-01-29T14:55:23.251Z,95811.41
2023-01-29T14:57:49.739Z,95809.16
2023-01-29T15:00:16.104Z,95808.56
2023-01-29T15:02:42.525Z,95811.03
2023-01-29T15:05:08.910Z,95812.50
2023-01-29T15:07:35.281Z,95809.53
2023-01-29T15:10:21.057Z,95812.41
2023-01-29T15:12:48.024Z,95808.84
2023-01-29T15:15:14.885Z,95807.69
2023-01-29T15:17:41.532Z,95806.50
2023-01-29T15:20:07.914Z,95803.63
2023-01-29T15:22:34.381Z,95795.59
2023-01-29T15:25:00.774Z,95790.81
2023-01-29T15:27:27.241Z,95797.56
2023-01-29T15:29:53.615Z,95788.38
2023-01-29T15:32:20.004Z,95786.03
2023-01-29T15:34:46.413Z,95785.41
2023-01-29T15:37:12.797Z,95793.34
2023-01-29T15:39:40.989Z,95786.53
2023-01-29T15:42:07.417Z,95786.94
2023-01-29T15:44:33.791Z,95781.31
2023-01-29T15:47:00.242Z,95782.97
2023-01-29T15:49:26.672Z,95781.78
2023-01-29T15:51:53.057Z,95786.81
2023-01-29T15:54:19.447Z,95791.78
2023-01-29T15:56:45.836Z,95787.81
2023-01-29T15:59:12.221Z,95799.97
2023-01-29T16:01:38.657Z,95794.00
2023-01-29T16:04:05.070Z,95801.31
2023-01-29T16:06:31.475Z,95801.75
2023-01-29T16:08:57.997Z,95805.00
2023-01-29T16:11:24.361Z,95802.97
2023-01-29T16:13:50.745Z,95799.50
2023-01-29T16:16:17.209Z,95798.81
2023-01-29T16:18:57.814Z,95807.38
2023-01-29T16:21:25.786Z,95808.91
2023-01-29T16:23:52.174Z,95805.75
2023-01-29T16:26:18.588Z,95807.66
2023-01-29T16:28:45.028Z,95805.69
2023-01-29T16:31:11.518Z,95796.00
2023-01-29T16:33:37.954Z,95802.16
2023-01-29T16:36:04.317Z,95796.66
2023-01-29T16:38:30.707Z,95800.94
2023-01-29T16:40:57.070Z,95805.72
2023-01-29T16:43:26.207Z,95808.97
2023-01-29T16:45:54.696Z,95811.25
2023-01-29T16:48:21.134Z,95810.94
2023-01-29T16:50:54.960Z,95819.22
2023-01-29T16:53:21.820Z,95815.72
2023-01-29T16:55:48.198Z,95812.75
2023-01-29T16:58:14.594Z,95817.56
2023-01-29T17:00:41.002Z,95812.44
2023-01-29T17:03:07.459Z,95820.31
2023-01-29T17:05:33.853Z,95815.53
2023-01-29T17:08:00.286Z,95819.53
2023-01-29T17:10:26.687Z,95819.84
2023-01-29T17:12:53.076Z,95820.78
2023-01-29T17:15:19.612Z,95815.59
2023-01-29T17:17:46.115Z,95810.22
2023-01-29T17:20:12.525Z,95815.03
2023-01-29T17:22:38.901Z,95812.44
2023-01-29T17:25:05.294Z,95819.34
2023-01-29T17:27:31.653Z,95818.91
2023-01-29T17:29:58.039Z,95831.06
2023-01-29T17:32:24.547Z,95835.06
2023-01-29T17:34:51.024Z,95842.31
2023-01-29T17:37:17.391Z,95840.91
2023-01-29T17:39:43.793Z,95841.22
2023-01-29T17:42:10.159Z,95842.16
2023-01-29T17:44:36.530Z,95842.63
2023-01-29T17:47:02.908Z,95844.16
2023-01-29T17:49:29.321Z,95839.53
2023-01-29T17:51:55.719Z,95846.00
2023-01-29T17:54:22.139Z,95851.06
2023-01-29T17:56:48.588Z,95845.53
2023-01-29T17:59:14.996Z,95847.22
2023-01-29T18:01:41.459Z,95843.84
2023-01-29T18:04:07.889Z,95850.75
2023-01-29T18:06:34.323Z,95863.34
2023-01-29T18:09:00.728Z,95853.19
2023-01-29T18:11:29.459Z,95848.75
2023-01-29T18:13:55.843Z,95845.69
2023-01-29T18:16:22.375Z,95848.00
2023-01-29T18:18:48.916Z,95855.03
2023-01-29T18:21:15.295Z,95855.19
2023-01-29T18:23:41.678Z,95843.53
2023-01-29T18:26:08.099Z,95842.59
2023-01-29T18:28:34.542Z,95843.97
2023-01-29T18:31:00.971Z,95841.53
2023-01-29T18:33:27.393Z,95838.75
2023-01-29T18:35:53.766Z,95841.06
2023-01-29T18:38:20.199Z,95845.53
2023-01-29T18:40:46.626Z,95841.38
2023-01-29T18:43:13.019Z,95836.94
2023-01-29T18:45:42.014Z,95844.44
2023-01-29T18:48:08.416Z,95843.50
2023-01-29T18:50:34.804Z,95841.84
2023-01-29T18:53:01.293Z,95835.53
2023-01-29T18:55:27.682Z,95829.41
2023-01-29T18:58:29.020Z,95837.69
2023-01-29T19:00:40.520Z,95835.53
2023-01-29T19:03:06.916Z,95834.75
2023-01-29T19:05:33.307Z,95825.22
2023-01-29T19:07:59.700Z,95830.44
2023-01-29T19:10:26.169Z,95824.31
2023-01-29T19:12:52.551Z,95833.06
2023-01-29T19:15:19.259Z,95843.31
2023-01-29T19:17:46.036Z,95834.28
2023-01-29T19:20:12.424Z,95838.72
2023-01-29T19:22:38.845Z,95833.06
2023-01-29T19:25:05.220Z,95834.91
2023-01-29T19:27:31.598Z,95840.72
2023-01-29T19:29:57.990Z,95835.97
2023-01-29T19:32:24.368Z,95841.50
2023-01-29T19:34:50.770Z,95837.22
2023-01-29T19:37:17.173Z,95851.03
2023-01-29T19:39:43.561Z,95846.56
2023-01-29T19:42:09.950Z,95852.25
2023-01-29T19:44:36.349Z,95856.53
2023-01-29T19:47:02.995Z,95848.69
2023-01-29T19:49:29.385Z,95859.72
2023-01-29T19:51:55.787Z,95859.59
2023-01-29T19:54:22.194Z,95859.00
2023-01-29T19:56:48.588Z,95865.44
2023-01-29T19:59:14.997Z,95865.44
2023-01-29T20:01:41.830Z,95871.56
2023-01-29T20:04:08.268Z,95870.31
2023-01-29T20:06:34.628Z,95871.41
2023-01-29T20:09:01.020Z,95878.44
2023-01-29T20:11:27.396Z,95875.38
2023-01-29T20:13:53.809Z,95878.13
2023-01-29T20:16:20.359Z,95882.28
2023-01-29T20:18:46.791Z,95881.63
2023-01-29T20:21:13.170Z,95878.25
2023-01-29T20:23:39.864Z,95874.69
2023-01-29T20:26:06.453Z,95885.25
2023-01-29T20:28:32.825Z,95875.28
2023-01-29T20:30:59.259Z,95879.59
2023-01-29T20:33:25.835Z,95891.72
2023-01-29T20:35:52.324Z,95886.50
2023-01-29T20:38:18.731Z,95897.53
2023-01-29T20:40:45.112Z,95900.44
2023-01-29T20:43:11.508Z,95902.56
2023-01-29T20:45:37.954Z,95898.56
2023-01-29T20:48:04.369Z,95892.75
2023-01-29T20:50:30.877Z,95904.72
2023-01-29T20:52:57.318Z,95887.69
2023-01-29T20:55:23.912Z,95899.66
2023-01-29T20:58:06.015Z,95905.16
2023-01-29T21:00:33.369Z,95909.31
2023-01-29T21:02:59.872Z,95903.34
2023-01-29T21:05:26.282Z,95913.31
2023-01-29T21:07:52.995Z,95911.50
2023-01-29T21:10:19.659Z,95910.72
2023-01-29T21:12:46.263Z,95911.31
2023-01-29T21:15:12.741Z,95913.47
2023-01-29T21:17:39.129Z,95915.28
2023-01-29T21:20:05.551Z,95907.19
2023-01-29T21:22:31.958Z,95908.72
2023-01-29T21:24:58.402Z,95912.38
2023-01-29T21:27:24.833Z,95906.09
2023-01-29T21:29:51.241Z,95905.81
2023-01-29T21:32:17.623Z,95907.34
2023-01-29T21:34:44.005Z,95912.84
2023-01-29T21:37:10.577Z,95909.78
2023-01-29T21:39:36.969Z,95917.31
2023-01-29T21:42:03.344Z,95911.44
2023-01-29T21:44:29.803Z,95908.72
2023-01-29T21:46:56.203Z,95904.28
2023-01-29T21:49:22.612Z,95903.50
2023-01-29T21:51:48.988Z,95903.63
2023-01-29T21:54:15.374Z,95898.88
2023-01-29T21:56:41.754Z,95895.69
2023-01-29T21:59:08.153Z,95896.28
2023-01-29T22:01:37.423Z,95895.38
2023-01-29T22:04:04.906Z,95889.06
2023-01-29T22:06:31.403Z,95893.06
2023-01-29T22:08:58.983Z,95890.00
2023-01-29T22:11:25.442Z,95893.38
2023-01-29T22:13:53.955Z,95889.22
2023-01-29T22:16:20.433Z,95890.59
2023-01-29T22:18:46.861Z,95892.75
2023-01-29T22:21:13.285Z,95884.47
2023-01-29T22:23:39.827Z,95886.94
2023-01-29T22:26:06.282Z,95881.72
2023-01-29T22:28:32.694Z,95880.19
2023-01-29T22:30:59.125Z,95885.38
2023-01-29T22:33:25.569Z,95875.44
2023-01-29T22:35:51.959Z,95880.19
2023-01-29T22:38:18.342Z,95874.19
2023-01-29T22:40:44.728Z,95867.63
2023-01-29T22:43:11.104Z,95871.75
2023-01-29T22:45:37.705Z,95874.38
2023-01-29T22:48:04.388Z,95866.72
2023-01-29T22:50:31.315Z,95865.03
2023-01-29T22:52:57.701Z,95848.81
2023-01-29T22:55:24.116Z,95848.97
2023-01-29T22:57:50.497Z,95839.78
2023-01-29T23:00:17.210Z,95839.47
2023-01-29T23:02:43.821Z,95840.72
2023-01-29T23:05:10.206Z,95823.84
2023-01-29T23:07:36.621Z,95826.16
2023-01-29T23:10:03.019Z,95831.53
2023-01-29T23:12:29.499Z,95822.63
2023-01-29T23:14:55.880Z,95813.56
2023-01-29T23:17:22.281Z,95813.56
2023-01-29T23:19:48.669Z,95812.97
2023-01-29T23:22:15.069Z,95812.97
2023-01-29T23:24:41.567Z,95819.25
2023-01-29T23:27:08.031Z,95819.09
2023-01-29T23:29:34.402Z,95802.38
2023-01-29T23:32:00.783Z,95806.81
2023-01-29T23:34:27.232Z,95813.47
2023-01-29T23:36:53.609Z,95806.56
2023-01-29T23:39:20.016Z,95800.09
2023-01-29T23:41:46.385Z,95798.72
2023-01-29T23:44:12.774Z,95802.81
2023-01-29T23:46:39.192Z,95805.00
2023-01-29T23:49:05.646Z,95793.25
2023-01-29T23:51:32.077Z,95793.41
2023-01-29T23:53:58.494Z,95796.97
2023-01-29T23:56:24.859Z,95791.09
2023-01-29T23:58:51.266Z,95792.34
